createdAt,value
2024-02-28T00:02:12.470Z,102460.13
2024-02-28T00:05:20.799Z,102488.06
2024-02-28T00:08:29.785Z,102486.88
2024-02-28T00:11:36.730Z,102490.84
2024-02-28T00:14:43.495Z,102496.94
2024-02-28T00:17:50.125Z,102481.69
2024-02-28T00:20:57.755Z,102482.78
2024-02-28T00:24:06.618Z,102469.63
2024-02-28T00:27:15.431Z,102493.94
2024-02-28T00:30:22.840Z,102491.84
2024-02-28T00:33:30.480Z,102478.78
2024-02-28T00:36:47.868Z,102469.44
2024-02-28T00:40:00.988Z,102478.13
2024-02-28T00:43:10.305Z,102491.72
2024-02-28T00:46:17.564Z,102494.44
2024-02-28T00:49:24.844Z,102484.88
2024-02-28T00:52:33.759Z,102445.69
2024-02-28T00:55:41.912Z,102476.78
2024-02-28T00:58:49.119Z,102475.31
2024-02-28T01:01:56.392Z,102488.56
2024-02-28T01:05:03.381Z,102478.53
2024-02-28T01:08:11.198Z,102472.66
2024-02-28T01:11:20.325Z,102480.66
2024-02-28T01:14:28.158Z,102480.34
2024-02-28T01:17:35.225Z,102473.47
2024-02-28T01:20:42.431Z,102474.84
2024-02-28T01:23:49.823Z,102474.44
2024-02-28T01:26:58.673Z,102473.03
2024-02-28T01:30:05.720Z,102456.50
2024-02-28T01:33:12.276Z,102456.25
2024-02-28T01:36:30.682Z,102237.69
2024-02-28T01:39:38.221Z,102462.56
2024-02-28T01:42:46.838Z,102447.47
2024-02-28T01:45:54.400Z,102449.44
2024-02-28T01:49:02.892Z,102455.47
2024-02-28T01:52:10.714Z,102449.25
2024-02-28T01:55:18.216Z,102444.47
2024-02-28T01:58:27.273Z,102438.84
2024-02-28T02:01:34.137Z,102423.22
2024-02-28T02:04:41.415Z,102435.94
2024-02-28T02:07:49.332Z,102435.06
2024-02-28T02:10:56.125Z,102420.44
2024-02-28T02:14:04.834Z,102431.84
2024-02-28T02:17:12.264Z,102430.28
2024-02-28T02:20:19.708Z,102429.38
2024-02-28T02:23:28.459Z,102425.91
2024-02-28T02:26:35.990Z,102419.09
2024-02-28T02:29:43.258Z,102400.34
2024-02-28T02:32:50.745Z,102413.44
2024-02-28T02:35:58.837Z,102414.41
2024-02-28T02:39:10.255Z,102381.66
2024-02-28T02:42:17.694Z,102404.88
2024-02-28T02:45:27.818Z,102397.38
2024-02-28T02:48:39.819Z,102396.38
2024-02-28T02:51:47.288Z,102393.47
2024-02-28T02:54:56.093Z,102391.34
2024-02-28T02:58:04.410Z,102383.50
2024-02-28T03:01:18.421Z,102383.00
2024-02-28T03:04:28.847Z,102352.19
2024-02-28T03:07:38.832Z,102299.91
2024-02-28T03:10:49.638Z,102376.72
2024-02-28T03:13:56.580Z,102356.69
2024-02-28T03:17:06.686Z,102354.91
2024-02-28T03:20:15.309Z,102358.00
2024-02-28T03:23:22.573Z,102347.31
2024-02-28T03:26:30.976Z,102343.72
2024-02-28T03:29:39.480Z,102323.44
2024-02-28T03:32:46.503Z,102316.22
2024-02-28T03:35:53.174Z,102319.03
2024-02-28T03:39:00.231Z,102318.22
2024-02-28T03:42:09.704Z,102322.91
2024-02-28T03:45:17.717Z,102316.44
2024-02-28T03:48:25.023Z,102321.41
2024-02-28T03:51:32.608Z,102316.03
2024-02-28T03:54:39.213Z,102314.84
2024-02-28T03:57:53.795Z,102302.53
2024-02-28T04:01:00.764Z,102313.47
2024-02-28T04:04:07.722Z,102306.19
2024-02-28T04:07:14.814Z,102313.81
2024-02-28T04:10:21.684Z,102275.34
2024-02-28T04:13:29.991Z,102297.28
2024-02-28T04:16:40.887Z,102281.06
2024-02-28T04:19:47.453Z,102289.25
2024-02-28T04:22:54.155Z,102283.88
2024-02-28T04:26:00.928Z,102266.72
2024-02-28T04:29:15.771Z,102283.88
2024-02-28T04:32:22.460Z,102272.09
2024-02-28T04:35:29.404Z,102272.59
2024-02-28T04:38:37.048Z,102272.03
2024-02-28T04:41:43.633Z,102269.19
2024-02-28T04:44:53.708Z,102250.88
2024-02-28T04:48:01.413Z,102264.81
2024-02-28T04:51:09.226Z,102259.94
2024-02-28T04:54:16.642Z,102255.53
2024-02-28T04:57:23.652Z,102250.94
2024-02-28T05:00:32.860Z,102250.19
2024-02-28T05:03:40.182Z,102252.50
2024-02-28T05:06:47.489Z,102257.84
2024-02-28T05:09:55.154Z,102241.97
2024-02-28T05:13:02.547Z,102246.44
2024-02-28T05:16:17.466Z,102204.00
2024-02-28T05:19:25.380Z,102250.34
2024-02-28T05:22:32.069Z,102246.47
2024-02-28T05:25:39.431Z,102239.34
2024-02-28T05:28:46.241Z,102238.91
2024-02-28T05:31:55.645Z,102226.97
2024-02-28T05:35:03.559Z,102229.63
2024-02-28T05:38:11.150Z,102231.56
2024-02-28T05:41:19.932Z,102206.41
2024-02-28T05:44:27.477Z,102220.19
2024-02-28T05:47:35.830Z,102223.56
2024-02-28T05:50:43.557Z,102222.25
2024-02-28T05:53:50.194Z,102221.34
2024-02-28T05:56:56.910Z,102225.41
2024-02-28T06:00:11.703Z,102218.66
2024-02-28T06:03:20.680Z,102216.34
2024-02-28T06:06:28.038Z,102155.56
2024-02-28T06:09:35.607Z,102196.22
2024-02-28T06:12:42.486Z,102215.88
2024-02-28T06:15:49.806Z,102210.53
2024-02-28T06:19:00.462Z,102214.50
2024-02-28T06:22:09.654Z,102211.78
2024-02-28T06:25:21.078Z,102209.72
2024-02-28T06:28:27.733Z,102207.22
2024-02-28T06:31:34.437Z,102201.34
2024-02-28T06:34:44.051Z,102211.19
2024-02-28T06:37:52.384Z,102147.84
2024-02-28T06:40:59.457Z,102209.31
2024-02-28T06:44:07.111Z,102200.66
2024-02-28T06:47:13.954Z,102202.75
2024-02-28T06:50:24.372Z,102207.19
2024-02-28T06:53:31.986Z,102207.56
2024-02-28T06:56:39.854Z,102205.88
2024-02-28T06:59:47.402Z,102204.59
2024-02-28T07:02:55.344Z,102153.19
2024-02-28T07:06:04.370Z,102196.56
2024-02-28T07:09:12.884Z,102206.44
2024-02-28T07:12:20.182Z,102206.94
2024-02-28T07:15:27.603Z,102207.56
2024-02-28T07:18:34.389Z,102206.75
2024-02-28T07:21:42.879Z,102213.91
2024-02-28T07:24:50.530Z,102222.06
2024-02-28T07:27:57.100Z,102213.59
2024-02-28T07:31:03.986Z,102218.03
2024-02-28T07:34:11.553Z,102215.66
2024-02-28T07:37:45.429Z,102197.38
2024-02-28T07:41:03.527Z,102218.94
2024-02-28T07:44:12.415Z,102227.03
2024-02-28T07:47:20.173Z,102223.09
2024-02-28T07:50:29.529Z,102223.00
2024-02-28T07:53:39.960Z,102221.50
2024-02-28T07:56:56.631Z,102201.06
2024-02-28T08:00:04.473Z,102215.28
2024-02-28T08:03:18.716Z,102217.44
2024-02-28T08:06:26.066Z,102196.25
2024-02-28T08:09:34.806Z,102219.44
2024-02-28T08:12:41.925Z,102217.88
2024-02-28T08:15:48.893Z,102212.28
2024-02-28T08:18:55.971Z,102218.91
2024-02-28T08:22:04.031Z,102214.97
2024-02-28T08:25:14.067Z,102214.97
2024-02-28T08:28:21.605Z,102213.34
2024-02-28T08:31:28.312Z,102214.53
2024-02-28T08:34:35.472Z,102216.56
2024-02-28T08:37:43.933Z,102211.50
2024-02-28T08:40:53.348Z,102203.81
2024-02-28T08:44:01.473Z,102217.16
2024-02-28T08:47:11.318Z,102210.06
2024-02-28T08:50:18.394Z,102206.41
2024-02-28T08:53:25.337Z,102213.38
2024-02-28T08:56:38.323Z,102208.88
2024-02-28T08:59:47.161Z,102204.38
2024-02-28T09:02:56.824Z,102210.28
2024-02-28T09:06:04.674Z,102211.16
2024-02-28T09:09:13.012Z,102212.19
2024-02-28T09:12:21.853Z,102184.25
2024-02-28T09:15:28.676Z,102202.69
2024-02-28T09:18:36.252Z,102209.94
2024-02-28T09:21:43.888Z,102216.59
2024-02-28T09:24:51.491Z,102176.22
2024-02-28T09:27:59.869Z,102215.25
2024-02-28T09:31:07.971Z,102213.16
2024-02-28T09:34:14.667Z,102207.03
2024-02-28T09:37:23.058Z,102208.81
2024-02-28T09:40:30.136Z,102207.13
2024-02-28T09:43:45.296Z,102197.19
2024-02-28T09:46:53.768Z,102201.81
2024-02-28T09:50:03.360Z,102188.84
2024-02-28T09:53:11.397Z,102206.84
2024-02-28T09:56:20.597Z,102201.22
2024-02-28T09:59:39.720Z,102196.00
2024-02-28T10:02:55.939Z,102190.78
2024-02-28T10:06:05.590Z,102201.34
2024-02-28T10:09:13.586Z,102190.22
2024-02-28T10:12:21.829Z,102197.19
2024-02-28T10:15:33.540Z,102201.63
2024-02-28T10:18:42.127Z,102192.13
2024-02-28T10:21:54.117Z,102198.75
2024-02-28T10:25:04.563Z,102199.59
2024-02-28T10:28:11.194Z,102190.88
2024-02-28T10:31:20.138Z,102188.50
2024-02-28T10:34:27.465Z,102154.84
2024-02-28T10:37:38.015Z,102186.13
2024-02-28T10:40:45.589Z,102175.75
2024-02-28T10:43:54.341Z,102183.31
2024-02-28T10:47:04.574Z,102177.38
2024-02-28T10:50:12.388Z,102178.38
2024-02-28T10:53:20.032Z,102165.88
2024-02-28T10:56:26.782Z,102188.03
2024-02-28T10:59:37.455Z,102154.94
2024-02-28T11:02:45.895Z,102141.09
2024-02-28T11:05:52.513Z,102175.44
2024-02-28T11:08:59.657Z,102186.56
2024-02-28T11:12:09.215Z,102165.56
2024-02-28T11:15:21.457Z,102181.97
2024-02-28T11:18:30.010Z,102197.84
2024-02-28T11:21:39.514Z,102155.31
2024-02-28T11:24:49.014Z,102170.19
2024-02-28T11:27:56.170Z,102172.31
2024-02-28T11:31:04.130Z,102183.22
2024-02-28T11:34:13.409Z,102177.81
2024-02-28T11:37:20.669Z,102170.06
2024-02-28T11:40:28.795Z,102188.38
2024-02-28T11:43:49.956Z,102184.22
2024-02-28T11:46:59.036Z,102180.88
2024-02-28T11:50:10.554Z,102181.59
2024-02-28T11:53:17.837Z,102182.81
2024-02-28T11:56:25.053Z,102172.28
2024-02-28T11:59:31.881Z,102182.81
2024-02-28T12:02:40.014Z,102187.59
2024-02-28T12:05:51.108Z,102174.88
2024-02-28T12:08:58.018Z,102178.25
2024-02-28T12:12:08.783Z,102186.06
2024-02-28T12:15:17.521Z,102190.22
2024-02-28T12:18:24.019Z,102145.69
2024-02-28T12:21:33.002Z,102191.75
2024-02-28T12:24:42.954Z,102181.44
2024-02-28T12:27:51.842Z,102183.16
2024-02-28T12:30:58.767Z,102175.03
2024-02-28T12:34:07.196Z,102197.91
2024-02-28T12:37:16.006Z,102192.69
2024-02-28T12:40:27.005Z,102196.03
2024-02-28T12:43:35.548Z,102181.59
2024-02-28T12:46:42.276Z,102182.63
2024-02-28T12:49:49.687Z,102180.47
2024-02-28T12:52:58.886Z,102204.28
2024-02-28T12:56:08.715Z,102210.78
2024-02-28T12:59:16.013Z,102208.19
2024-02-28T13:02:22.588Z,102206.88
2024-02-28T13:05:32.129Z,102195.75
2024-02-28T13:08:41.157Z,102204.03
2024-02-28T13:11:47.880Z,102202.59
2024-02-28T13:14:55.072Z,102203.00
2024-02-28T13:18:04.381Z,102205.22
2024-02-28T13:21:11.031Z,102206.22
2024-02-28T13:24:19.509Z,102203.47
2024-02-28T13:27:27.225Z,102201.78
2024-02-28T13:30:34.485Z,102189.75
2024-02-28T13:33:43.459Z,102192.47
2024-02-28T13:36:49.989Z,102183.97
2024-02-28T13:39:58.735Z,102194.72
2024-02-28T13:43:06.137Z,102201.19
2024-02-28T13:46:13.212Z,102195.16
2024-02-28T13:49:22.541Z,102187.22
2024-02-28T13:52:29.443Z,102195.44
2024-02-28T13:55:38.044Z,102181.78
2024-02-28T13:58:52.679Z,102188.72
2024-02-28T14:02:01.775Z,102198.09
2024-02-28T14:05:10.389Z,102194.41
2024-02-28T14:08:18.361Z,102197.00
2024-02-28T14:11:27.920Z,102167.84
2024-02-28T14:14:35.000Z,102187.22
2024-02-28T14:17:41.587Z,102169.41
2024-02-28T14:20:49.231Z,102197.16
2024-02-28T14:23:56.212Z,102182.44
2024-02-28T14:27:07.360Z,102178.72
2024-02-28T14:30:16.076Z,102187.69
2024-02-28T14:33:23.538Z,102189.19
2024-02-28T14:36:30.954Z,102185.06
2024-02-28T14:39:38.643Z,102189.72
2024-02-28T14:42:48.736Z,102203.47
2024-02-28T14:45:55.693Z,102154.75
2024-02-28T14:49:04.853Z,102203.66
2024-02-28T14:52:12.650Z,102206.81
2024-02-28T14:55:20.246Z,102207.72
2024-02-28T14:58:28.913Z,102203.59
2024-02-28T15:01:36.291Z,102208.72
2024-02-28T15:04:43.669Z,102206.56
2024-02-28T15:07:50.907Z,102212.91
2024-02-28T15:10:58.621Z,102207.75
2024-02-28T15:14:07.792Z,102206.47
2024-02-28T15:17:14.582Z,102212.00
2024-02-28T15:20:22.321Z,102207.84
2024-02-28T15:23:31.796Z,102189.84
2024-02-28T15:26:45.936Z,102209.56
2024-02-28T15:29:56.152Z,102186.47
2024-02-28T15:33:05.744Z,102198.22
2024-02-28T15:36:13.240Z,102197.09
2024-02-28T15:39:20.724Z,102195.13
2024-02-28T15:42:27.333Z,102190.25
2024-02-28T15:45:36.255Z,102198.34
2024-02-28T15:48:43.570Z,102189.81
2024-02-28T15:51:51.295Z,102184.34
2024-02-28T15:54:59.260Z,102184.28
2024-02-28T15:58:07.202Z,102177.50
2024-02-28T16:01:15.925Z,102182.66
2024-02-28T16:04:22.537Z,102174.28
2024-02-28T16:07:29.464Z,102185.47
2024-02-28T16:10:47.936Z,102180.75
2024-02-28T16:13:54.814Z,102180.56
2024-02-28T16:17:03.430Z,102178.34
2024-02-28T16:20:11.600Z,102179.06
2024-02-28T16:23:21.325Z,102165.94
2024-02-28T16:26:28.251Z,102168.69
2024-02-28T16:29:35.864Z,102174.81
2024-02-28T16:32:44.452Z,102169.31
2024-02-28T16:35:51.743Z,102180.38
2024-02-28T16:38:59.181Z,102119.69
2024-02-28T16:42:06.425Z,102131.97
2024-02-28T16:45:13.669Z,102175.38
2024-02-28T16:48:22.680Z,102167.88
2024-02-28T16:51:29.495Z,102172.06
2024-02-28T16:54:36.552Z,102168.00
2024-02-28T16:57:44.025Z,102178.09
2024-02-28T17:00:52.549Z,102179.91
2024-02-28T17:04:00.760Z,102188.25
2024-02-28T17:07:08.347Z,102164.75
2024-02-28T17:10:15.113Z,102175.59
2024-02-28T17:13:22.293Z,102180.88
2024-02-28T17:16:29.402Z,102182.66
2024-02-28T17:19:38.806Z,102175.53
2024-02-28T17:22:45.777Z,102177.19
2024-02-28T17:25:52.974Z,102184.34
2024-02-28T17:29:00.093Z,102178.25
2024-02-28T17:32:08.069Z,102175.88
2024-02-28T17:35:16.489Z,102180.91
2024-02-28T17:38:23.119Z,102173.00
2024-02-28T17:41:30.306Z,102173.75
2024-02-28T17:44:37.982Z,102173.72
2024-02-28T17:47:46.153Z,102166.63
2024-02-28T17:50:54.834Z,102176.00
2024-02-28T17:54:01.854Z,102169.84
2024-02-28T17:57:09.142Z,102171.25
2024-02-28T18:00:23.457Z,102170.81
2024-02-28T18:03:30.852Z,102161.16
2024-02-28T18:06:40.626Z,102179.22
2024-02-28T18:09:49.030Z,102176.38
2024-02-28T18:12:57.045Z,102175.13
2024-02-28T18:16:03.697Z,102117.56
2024-02-28T18:19:10.581Z,102176.00
2024-02-28T18:22:19.158Z,102175.47
2024-02-28T18:25:26.662Z,102166.97
2024-02-28T18:28:38.537Z,102183.25
2024-02-28T18:31:45.377Z,102165.50
2024-02-28T18:34:53.816Z,102179.13
2024-02-28T18:38:02.835Z,102180.91
2024-02-28T18:41:09.699Z,102176.00
2024-02-28T18:44:18.289Z,102184.50
2024-02-28T18:47:26.033Z,102181.84
2024-02-28T18:50:33.336Z,102173.44
2024-02-28T18:53:44.713Z,102177.06
2024-02-28T18:56:51.829Z,102172.75
2024-02-28T18:59:59.337Z,102175.28
2024-02-28T19:03:06.735Z,102165.09
2024-02-28T19:06:14.343Z,102182.94
2024-02-28T19:09:23.596Z,102160.31
2024-02-28T19:12:33.179Z,102175.78
2024-02-28T19:15:39.783Z,102176.19
2024-02-28T19:18:46.827Z,102177.28
2024-02-28T19:21:54.390Z,102175.63
2024-02-28T19:25:02.804Z,102175.22
2024-02-28T19:28:10.173Z,102163.50
2024-02-28T19:31:18.097Z,102165.25
2024-02-28T19:34:25.643Z,102168.41
2024-02-28T19:37:32.720Z,102178.16
2024-02-28T19:40:41.448Z,102175.97
2024-02-28T19:43:48.072Z,102133.53
2024-02-28T19:46:55.117Z,102173.56
2024-02-28T19:50:02.744Z,102170.63
2024-02-28T19:53:09.518Z,102171.41
2024-02-28T19:56:18.148Z,102168.34
2024-02-28T19:59:26.003Z,102171.91
2024-02-28T20:02:32.728Z,102129.59
2024-02-28T20:05:39.165Z,102161.97
2024-02-28T20:08:46.792Z,102159.13
2024-02-28T20:11:55.815Z,102166.50
2024-02-28T20:15:02.599Z,102164.63
2024-02-28T20:18:10.331Z,102156.59
2024-02-28T20:21:24.537Z,102133.19
2024-02-28T20:24:35.950Z,102149.53
2024-02-28T20:27:44.381Z,102153.28
2024-02-28T20:30:53.356Z,102131.06
2024-02-28T20:34:02.051Z,102138.53
2024-02-28T20:37:10.080Z,102147.63
2024-02-28T20:40:17.451Z,102140.81
2024-02-28T20:43:25.642Z,102143.09
2024-02-28T20:46:33.182Z,102135.50
2024-02-28T20:49:40.520Z,102139.66
2024-02-28T20:52:50.058Z,102144.03
2024-02-28T20:55:57.168Z,102148.63
2024-02-28T20:59:06.620Z,102139.34
2024-02-28T21:02:13.439Z,102130.28
2024-02-28T21:05:23.850Z,102138.91
2024-02-28T21:08:30.743Z,102129.75
2024-02-28T21:11:37.764Z,102125.00
2024-02-28T21:14:45.971Z,102121.31
2024-02-28T21:17:54.548Z,102115.88
2024-02-28T21:21:01.937Z,102111.31
2024-02-28T21:24:13.656Z,101993.28
2024-02-28T21:27:20.424Z,102126.47
2024-02-28T21:30:30.873Z,102117.97
2024-02-28T21:33:38.602Z,102125.34
2024-02-28T21:36:45.913Z,102116.66
2024-02-28T21:39:52.607Z,102087.00
2024-02-28T21:43:00.464Z,102130.13
2024-02-28T21:46:09.743Z,102127.13
2024-02-28T21:49:20.807Z,102125.16
2024-02-28T21:52:30.717Z,102107.41
2024-02-28T21:55:37.237Z,102109.72
2024-02-28T21:58:46.411Z,102125.63
2024-02-28T22:01:58.302Z,102131.06
2024-02-28T22:05:05.068Z,102121.56
2024-02-28T22:08:12.369Z,102129.69
2024-02-28T22:11:19.583Z,102127.72
2024-02-28T22:14:26.256Z,102126.69
2024-02-28T22:17:34.309Z,102114.63
2024-02-28T22:20:40.750Z,102122.38
2024-02-28T22:23:47.152Z,102123.47
2024-02-28T22:26:53.454Z,102131.31
2024-02-28T22:30:00.969Z,102127.47
2024-02-28T22:33:11.327Z,102099.41
2024-02-28T22:36:18.187Z,102119.81
2024-02-28T22:39:24.846Z,102125.00
2024-02-28T22:42:35.393Z,102115.22
2024-02-28T22:45:42.263Z,102114.28
2024-02-28T22:48:51.642Z,102135.50
2024-02-28T22:51:58.414Z,102112.16
2024-02-28T22:55:05.470Z,102116.31
2024-02-28T22:58:12.074Z,102110.50
2024-02-28T23:01:19.470Z,102118.44
2024-02-28T23:04:29.000Z,102120.63
2024-02-28T23:07:35.545Z,102116.75
2024-02-28T23:10:42.049Z,102121.34
2024-02-28T23:13:49.732Z,102123.72
2024-02-28T23:16:56.910Z,102113.84
2024-02-28T23:20:05.358Z,102106.66
2024-02-28T23:23:12.776Z,102110.88
2024-02-28T23:26:19.934Z,102106.41
2024-02-28T23:29:26.304Z,102102.72
2024-02-28T23:32:32.882Z,102099.13
2024-02-28T23:35:42.661Z,102110.34
2024-02-28T23:38:49.385Z,102102.38
2024-02-28T23:42:00.900Z,102085.56
2024-02-28T23:45:10.083Z,102101.59
2024-02-28T23:48:21.847Z,102105.19
2024-02-28T23:51:30.326Z,102101.50
2024-02-28T23:54:39.477Z,102089.59
2024-02-28T23:57:46.157Z,102088.38
